Elma, NY

8:17 PM EDT on August 21, 2014 (GMT -0400)
South Lancaster | Change Station
CLOSE
Current Station
Personal Weather Station
Location: Lancaster, NY
Elevation: 684 ft
Nearby Weather Stations

Elev 684 ft 42.87 °N, 78.67 °W | Updated 5 seconds ago

Partly Cloudy
Partly Cloudy
75.1 °F
Feels Like 76 °F
N
2.0
Wind Variable Wind from SW
Gusts 6.0 mph

Today
High -- | Low -- °F
--% Chance of Precip.
Yesterday
High -- | Low -- °F
Precip. -- in
6:27 AM 8:07 PM
Waning Crescent, 11% visible
Pressure 29.95 in
Visibility 10.0 miles
Clouds Mostly Cloudy 5500 ft
Mostly Cloudy 10000 ft
Mostly Cloudy 25000 ft
Heat Index 76 °F
Dew Point 67 °F
Humidity 75%
Rainfall 0.00 in
Snow Depth Not available.
UV 0 out of 12
Pollen 7.10 out of 12
Air Quality Not available.
Flu Activity Not available.
METAR KBUF 212354Z 21007KT 10SM BKN055 BKN100 BKN250 23/18 A2996 RMK AO2 SLP142 TCU DSNT SE-SW T02330178 10261 20233 53004

More Conditions Fewer Conditions

Pressure 29.95 in
Visibility 10.0 miles
Clouds Mostly Cloudy 5500 ft
Mostly Cloudy 10000 ft
Mostly Cloudy 25000 ft
Heat Index 76 °F
Dew Point 67 °F
Humidity 75%
Rainfall 0.00 in
Snow Depth Not available.
UV 0 out of 12
Pollen 7.10 out of 12
Air Quality Not available.
Flu Activity Not available.
METAR KBUF 212354Z 21007KT 10SM BKN055 BKN100 BKN250 23/18 A2996 RMK AO2 SLP142 TCU DSNT SE-SW T02330178 10261 20233 53004

More Conditions Fewer Conditions

10-Day Weather Forecast

Almanac

Astronomy

Aug. 21, 2014 Rise Set
Actual Time 6:27 AM EDT 8:07 PM EDT
Civil Twilight 5:57 AM EDT 8:37 PM EDT
Nautical Twilight 5:20 AM EDT 9:13 PM EDT
Astronomical Twilight 4:41 AM EDT 9:52 PM EDT
Moon 2:53 AM EDT (8/21) 5:36 PM EDT (8/21)
Length of Visible Light 14h 40m
Length of Day
13h 40m
Tomorrow will be 2m 41s shorter.
Waning Crescent, 11% of the Moon is Illuminated
Today
Waning Crescent
Aug 25
New
Sep 2
First Quarter
Sep 8
Full
Sep 15
Last Quarter

Today's Extremes

State Highs State Lows

Community

WunderPhotos

Upload Photos

1,746,065 photos uploaded!

Nearby

Air Quality

  Air Quality AQ Index Pollutant
Yesterday Good
OZONE
Yesterday Good
PM2.5
Thursday Moderate
OZONE
Thursday Good
PM2.5
Friday Good
OZONE
Friday Good
PM2.5

Snow Depth

Station Depth Elevation
No new snow has been reported.

Earthquake Activity

City Distance Mag. Time & Date
No recent earthquake activity has been reported nearby.
Minimum magnitude displayed is 2.5.

Coastal Water Temperatures

Place Temperature
Buffalo, NY 72.0 °F

Nearby Weather Stations